CMA CGM Turquoise — A8RB5 — position and weather

sailwx.info

Track history (hours):
 
Tides and Currents Weather Stations Pressure Air Temp Water Temp Dewpoint Dewpoint Depression Visibility Wind Speed Wind Dir Waves Ship Positions

CMA CGM Turquoise

Last reported at 2018-May-11 01:42 UTC. Time now 2018-May-24 14:06 UTC.
Position S 05°32' E 010°54'.
Warning: this ship's position is 13 days out of date.

Length 258 m; draft 10.9 m.

Type: Ship (hazmat cat C). MMSI: 636014059.

Date/timePositionNaut miles runAvg speedWind from/ knotsBaromVisibWave heightAir tempDewpointWater temp
2018-May-11 01:42S 05°32' E 010°54'418.0
2018-May-11 01:30S 05°29' E 010°56'918.1
2018-May-11 01:00S 05°24' E 011°03'918.3
2018-May-11 00:30S 05°17' E 011°09'918.2
2018-May-11 00:00S 05°10' E 011°16'918.1
2018-May-10 23:30S 05°04' E 011°22'817.2
2018-May-10 23:00S 05°00' E 011°30'917.2
2018-May-10 22:30S 04°53' E 011°35'917.8
2018-May-10 21:59S 04°49' E 011°43'7 1.2
2018-May-10 16:06S 04°47' E 011°50'0 0.0
2018-May-10 16:00S 04°47' E 011°50'0 0.0
2018-May-10 11:39S 04°47' E 011°50'0 0.7
2018-May-10 11:28S 04°47' E 011°50'0 0.0
2018-May-10 09:04S 04°47' E 011°50'0 0.0
2018-May-10 08:58S 04°47' E 011°50'0 0.0
2018-May-10 07:55S 04°47' E 011°50'0 0.0
2018-May-10 06:48S 04°47' E 011°50'0 0.0
2018-May-10 06:30S 04°47' E 011°50'0 0.0
2018-May-10 06:00S 04°47' E 011°50'0 0.0
2018-May-10 05:24S 04°47' E 011°50'0 0.0
2018-May-10 05:00S 04°47' E 011°50'0 0.0
2018-May-10 04:30S 04°47' E 011°50'0 0.0
2018-May-10 03:54S 04°47' E 011°50'0 0.0
2018-May-09 07:30S 04°47' E 011°50'3 0.2
2018-May-08 16:58S 04°46' E 011°47'0 0.0
2018-May-08 16:07S 04°46' E 011°47'0 0.0
2018-May-08 15:58S 04°46' E 011°47'0 0.1
2018-May-08 15:22S 04°46' E 011°47'0 0.0
2018-May-08 14:52S 04°46' E 011°47'0 0.0
2018-May-08 14:28S 04°46' E 011°47'0 0.1
2018-May-08 12:58S 04°46' E 011°47'0 0.1
2018-May-08 12:28S 04°46' E 011°47'16 7.9
2018-May-08 10:28S 04°55' E 011°34'815.5
2018-May-08 09:58S 05°02' E 011°31'714.6
2018-May-08 09:30S 05°04' E 011°25'815.9
2018-May-08 08:59S 05°07' E 011°16'715.1
2018-May-08 08:30S 05°05' E 011°10'915.7
2018-May-08 07:57S 05°01' E 011°02'715.6
2018-May-08 07:30S 04°58' E 010°55'815.8
2018-May-08 07:00S 04°54' E 010°48'  
2018-May-03 20:12N 07°55' W 014°26'516.3
2018-May-03 19:53N 07°59' W 014°29'816.1
2018-May-03 19:22N 08°05' W 014°35'615.9
2018-May-03 19:00N 08°09' W 014°39'1416.0
2018-May-03 18:08N 08°19' W 014°49'315.9
2018-May-03 17:56N 08°22' W 014°51'815.9
2018-May-03 17:26N 08°27' W 014°57'716.1
2018-May-03 17:00N 08°32' W 015°02'2416.0
2018-May-03 15:31N 08°49' W 015°19'  
Track history (hours):
 
Tides and Currents Weather Stations Pressure Air Temp Water Temp Dewpoint Dewpoint Depression Visibility Wind Speed Wind Dir Waves Ship Positions

CMA CGM Turquoise

Last reported at 2018-May-11 01:42 UTC. Time now 2018-May-24 14:06 UTC.
Position S 05°32' E 010°54'.
Warning: this ship's position is 13 days out of date.

Length 258 m; draft 10.9 m.

Type: Ship (hazmat cat C). MMSI: 636014059.

Date/timePositionNaut miles runAvg speedWind from/ knotsBaromVisibWave heightAir tempDewpointWater temp
2018-May-11 01:42S 05°32' E 010°54'418.0
2018-May-11 01:30S 05°29' E 010°56'918.1
2018-May-11 01:00S 05°24' E 011°03'918.3
2018-May-11 00:30S 05°17' E 011°09'918.2
2018-May-11 00:00S 05°10' E 011°16'918.1
2018-May-10 23:30S 05°04' E 011°22'817.2
2018-May-10 23:00S 05°00' E 011°30'917.2
2018-May-10 22:30S 04°53' E 011°35'917.8
2018-May-10 21:59S 04°49' E 011°43'7 1.2
2018-May-10 16:06S 04°47' E 011°50'0 0.0
2018-May-10 16:00S 04°47' E 011°50'0 0.0
2018-May-10 11:39S 04°47' E 011°50'0 0.7
2018-May-10 11:28S 04°47' E 011°50'0 0.0
2018-May-10 09:04S 04°47' E 011°50'0 0.0
2018-May-10 08:58S 04°47' E 011°50'0 0.0
2018-May-10 07:55S 04°47' E 011°50'0 0.0
2018-May-10 06:48S 04°47' E 011°50'0 0.0
2018-May-10 06:30S 04°47' E 011°50'0 0.0
2018-May-10 06:00S 04°47' E 011°50'0 0.0
2018-May-10 05:24S 04°47' E 011°50'0 0.0
2018-May-10 05:00S 04°47' E 011°50'0 0.0
2018-May-10 04:30S 04°47' E 011°50'0 0.0
2018-May-10 03:54S 04°47' E 011°50'0 0.0
2018-May-09 07:30S 04°47' E 011°50'3 0.2
2018-May-08 16:58S 04°46' E 011°47'0 0.0
2018-May-08 16:07S 04°46' E 011°47'0 0.0
2018-May-08 15:58S 04°46' E 011°47'0 0.1
2018-May-08 15:22S 04°46' E 011°47'0 0.0
2018-May-08 14:52S 04°46' E 011°47'0 0.0
2018-May-08 14:28S 04°46' E 011°47'0 0.1
2018-May-08 12:58S 04°46' E 011°47'0 0.1
2018-May-08 12:28S 04°46' E 011°47'16 7.9
2018-May-08 10:28S 04°55' E 011°34'815.5
2018-May-08 09:58S 05°02' E 011°31'714.6
2018-May-08 09:30S 05°04' E 011°25'815.9
2018-May-08 08:59S 05°07' E 011°16'715.1
2018-May-08 08:30S 05°05' E 011°10'915.7
2018-May-08 07:57S 05°01' E 011°02'715.6
2018-May-08 07:30S 04°58' E 010°55'815.8
2018-May-08 07:00S 04°54' E 010°48'  
2018-May-03 20:12N 07°55' W 014°26'516.3
2018-May-03 19:53N 07°59' W 014°29'816.1
2018-May-03 19:22N 08°05' W 014°35'615.9
2018-May-03 19:00N 08°09' W 014°39'1416.0
2018-May-03 18:08N 08°19' W 014°49'315.9
2018-May-03 17:56N 08°22' W 014°51'815.9
2018-May-03 17:26N 08°27' W 014°57'716.1
2018-May-03 17:00N 08°32' W 015°02'2416.0
2018-May-03 15:31N 08°49' W 015°19'  

Dump ship's entire track history